createdAt,value
2017-01-20T00:00:16.524Z,0
2017-01-20T00:01:26.693Z,0
2017-01-20T00:02:36.863Z,0
2017-01-20T00:03:46.792Z,0
2017-01-20T00:04:56.513Z,0
2017-01-20T00:06:06.714Z,0
2017-01-20T00:07:16.439Z,0
2017-01-20T00:08:26.160Z,0
2017-01-20T00:09:35.490Z,0
2017-01-20T00:10:46.111Z,0
2017-01-20T00:11:56.276Z,0
2017-01-20T00:13:06.441Z,0
2017-01-20T00:14:16.174Z,0
2017-01-20T00:15:25.955Z,0
2017-01-20T00:16:36.120Z,0
2017-01-20T00:17:46.290Z,0
2017-01-20T00:18:56.019Z,0
2017-01-20T00:20:05.772Z,0
2017-01-20T00:21:15.558Z,0
2017-01-20T00:22:25.295Z,0
2017-01-20T00:23:35.024Z,0
2017-01-20T00:24:44.753Z,0
2017-01-20T00:25:54.478Z,0
2017-01-20T00:27:04.256Z,0
2017-01-20T00:28:13.980Z,0
2017-01-20T00:29:23.710Z,0
2017-01-20T00:30:33.439Z,0
2017-01-20T00:31:43.176Z,0
2017-01-20T00:32:53.833Z,0
2017-01-20T00:34:04.006Z,0
2017-01-20T00:35:14.176Z,0
2017-01-20T00:36:23.913Z,0
2017-01-20T00:37:34.526Z,0
2017-01-20T00:38:44.295Z,0
2017-01-20T00:39:54.021Z,0
2017-01-20T00:41:04.190Z,0
2017-01-20T00:42:14.391Z,0
2017-01-20T00:43:24.128Z,0
2017-01-20T00:44:33.909Z,0
2017-01-20T00:45:44.547Z,0
2017-01-20T00:46:54.271Z,0
2017-01-20T00:48:04.001Z,0
2017-01-20T00:49:14.182Z,0
2017-01-20T00:50:23.959Z,0
2017-01-20T00:51:33.249Z,0
2017-01-20T00:52:42.978Z,0
2017-01-20T00:53:52.703Z,0
2017-01-20T00:55:02.432Z,0
2017-01-20T00:56:12.209Z,0
2017-01-20T00:57:22.378Z,0
2017-01-20T00:58:32.104Z,0
2017-01-20T00:59:41.833Z,0
2017-01-20T01:00:52.030Z,0
2017-01-20T01:02:01.843Z,0
2017-01-20T01:03:11.584Z,0
2017-01-20T01:04:21.317Z,0
2017-01-20T01:05:31.051Z,0
2017-01-20T01:06:41.228Z,0
2017-01-20T01:07:51.445Z,0
2017-01-20T01:09:01.178Z,0
2017-01-20T01:10:10.911Z,0
2017-01-20T01:11:20.636Z,0
2017-01-20T01:12:30.385Z,0
2017-01-20T01:13:40.174Z,0
2017-01-20T01:14:50.343Z,0
2017-01-20T01:16:00.068Z,0
2017-01-20T01:17:09.358Z,0
2017-01-20T01:18:19.090Z,0
2017-01-20T01:19:29.015Z,0
2017-01-20T01:20:38.300Z,0
2017-01-20T01:21:48.909Z,0
2017-01-20T01:22:58.650Z,0
2017-01-20T01:24:08.827Z,0
2017-01-20T01:25:18.624Z,0
2017-01-20T01:26:28.789Z,0
2017-01-20T01:27:38.514Z,0
2017-01-20T01:28:48.251Z,0
2017-01-20T01:29:57.980Z,0
2017-01-20T01:31:07.310Z,0
2017-01-20T01:32:17.039Z,0
2017-01-20T01:33:26.764Z,0
2017-01-20T01:34:36.489Z,0
2017-01-20T01:35:46.222Z,0
2017-01-20T01:36:56.003Z,0
2017-01-20T01:38:06.172Z,0
2017-01-20T01:39:15.905Z,0
2017-01-20T01:40:26.520Z,0
2017-01-20T01:41:36.256Z,0
2017-01-20T01:42:46.037Z,0
2017-01-20T01:43:55.767Z,0
2017-01-20T01:45:05.499Z,0
2017-01-20T01:46:15.225Z,0
2017-01-20T01:47:24.954Z,0
2017-01-20T01:48:34.730Z,0
2017-01-20T01:49:44.900Z,0
2017-01-20T01:50:54.625Z,0
2017-01-20T01:52:04.350Z,0
2017-01-20T01:53:14.523Z,0
2017-01-20T01:54:24.297Z,0
2017-01-20T01:55:33.577Z,0
2017-01-20T01:56:43.743Z,0
2017-01-20T01:57:53.472Z,0
2017-01-20T01:59:03.197Z,0
2017-01-20T02:00:12.974Z,0
2017-01-20T02:01:23.143Z,0
2017-01-20T02:02:32.884Z,0
2017-01-20T02:03:42.610Z,0
2017-01-20T02:04:52.335Z,0
2017-01-20T02:06:02.116Z,0
2017-01-20T02:07:11.841Z,0
2017-01-20T02:08:21.575Z,0
2017-01-20T02:09:31.753Z,0
2017-01-20T02:10:41.926Z,0
2017-01-20T02:11:51.702Z,0
2017-01-20T02:13:01.431Z,0
2017-01-20T02:14:11.597Z,0
2017-01-20T02:15:21.766Z,0
2017-01-20T02:16:31.504Z,0
2017-01-20T02:17:41.276Z,0
2017-01-20T02:18:51.006Z,0
2017-01-20T02:20:01.182Z,0
2017-01-20T02:21:10.912Z,0
2017-01-20T02:22:20.641Z,0
2017-01-20T02:23:30.867Z,0
2017-01-20T02:24:40.604Z,0
2017-01-20T02:25:51.221Z,0
2017-01-20T02:27:00.954Z,0
2017-01-20T02:28:10.683Z,0
2017-01-20T02:29:20.460Z,0
2017-01-20T02:30:30.190Z,0
2017-01-20T02:31:39.923Z,0
2017-01-20T02:32:50.100Z,0
2017-01-20T02:34:00.269Z,0
2017-01-20T02:35:10.058Z,0
2017-01-20T02:36:19.816Z,0
2017-01-20T02:37:29.644Z,0
2017-01-20T02:38:39.817Z,0
2017-01-20T02:39:49.551Z,0
2017-01-20T02:40:59.336Z,0
2017-01-20T02:42:09.069Z,0
2017-01-20T02:43:18.797Z,0
2017-01-20T02:44:28.963Z,0
2017-01-20T02:45:38.240Z,0
2017-01-20T02:46:48.001Z,0
2017-01-20T02:47:57.278Z,0
2017-01-20T02:49:07.003Z,0
2017-01-20T02:50:16.716Z,0
2017-01-20T02:51:26.877Z,0
2017-01-20T02:52:36.642Z,0
2017-01-20T02:53:46.367Z,0
2017-01-20T02:54:55.649Z,0
2017-01-20T02:56:05.366Z,0
2017-01-20T02:57:15.527Z,0
2017-01-20T02:58:25.740Z,0
2017-01-20T02:59:35.457Z,0
2017-01-20T03:00:45.610Z,0
2017-01-20T03:01:55.332Z,0
2017-01-20T03:03:05.929Z,0
2017-01-20T03:04:16.134Z,0
2017-01-20T03:05:25.851Z,0
2017-01-20T03:06:35.148Z,0
2017-01-20T03:07:44.866Z,0
2017-01-20T03:08:54.147Z,0
2017-01-20T03:10:03.916Z,0
2017-01-20T03:11:13.629Z,0
2017-01-20T03:12:23.342Z,0
2017-01-20T03:13:33.507Z,0
2017-01-20T03:14:44.097Z,0
2017-01-20T03:15:54.062Z,0
2017-01-20T03:17:04.655Z,0
2017-01-20T03:18:13.948Z,0
2017-01-20T03:19:23.665Z,0
2017-01-20T03:20:32.947Z,0
2017-01-20T03:21:42.716Z,0
2017-01-20T03:22:52.872Z,0
2017-01-20T03:24:03.466Z,0
2017-01-20T03:25:12.743Z,0
2017-01-20T03:26:22.020Z,0
2017-01-20T03:27:31.789Z,0
2017-01-20T03:28:42.407Z,0
2017-01-20T03:29:52.552Z,0
2017-01-20T03:31:02.705Z,0
2017-01-20T03:32:12.426Z,0
2017-01-20T03:33:23.220Z,0
2017-01-20T03:34:32.940Z,0
2017-01-20T03:35:42.654Z,0
2017-01-20T03:36:53.239Z,0
2017-01-20T03:38:02.516Z,0
2017-01-20T03:39:11.842Z,0
2017-01-20T03:40:21.555Z,0
2017-01-20T03:41:32.144Z,0
2017-01-20T03:42:41.858Z,0
2017-01-20T03:43:51.571Z,0
2017-01-20T03:45:01.336Z,0
2017-01-20T03:46:11.929Z,0
2017-01-20T03:47:22.100Z,0
2017-01-20T03:48:32.272Z,0
2017-01-20T03:49:41.549Z,0
2017-01-20T03:50:50.878Z,0
2017-01-20T03:52:00.599Z,0
2017-01-20T03:53:10.308Z,0
2017-01-20T03:54:19.581Z,0
2017-01-20T03:55:29.299Z,0
2017-01-20T03:56:39.496Z,0
2017-01-20T03:57:49.217Z,0
2017-01-20T03:58:59.810Z,0
2017-01-20T04:00:09.088Z,0
2017-01-20T04:01:18.801Z,0
2017-01-20T04:02:29.006Z,0
2017-01-20T04:03:39.157Z,0
2017-01-20T04:04:49.313Z,0
2017-01-20T04:05:59.465Z,0
2017-01-20T04:07:09.191Z,0
2017-01-20T04:08:18.951Z,0
2017-01-20T04:09:28.669Z,0
2017-01-20T04:10:38.385Z,0
2017-01-20T04:11:48.975Z,0
2017-01-20T04:12:58.692Z,0
2017-01-20T04:14:08.017Z,0
2017-01-20T04:15:18.166Z,0
2017-01-20T04:16:28.323Z,0
2017-01-20T04:17:38.500Z,0
2017-01-20T04:18:49.093Z,0
2017-01-20T04:19:58.871Z,0
2017-01-20T04:21:09.024Z,0
2017-01-20T04:22:19.616Z,0
2017-01-20T04:23:28.902Z,0
2017-01-20T04:24:39.063Z,0
2017-01-20T04:25:49.707Z,0
2017-01-20T04:26:59.425Z,0
2017-01-20T04:28:09.146Z,0
2017-01-20T04:29:19.306Z,0
2017-01-20T04:30:29.460Z,0
2017-01-20T04:31:40.105Z,0
2017-01-20T04:32:50.702Z,0
2017-01-20T04:34:00.003Z,0
2017-01-20T04:35:09.278Z,0
2017-01-20T04:36:19.428Z,0
2017-01-20T04:37:29.642Z,0
2017-01-20T04:38:38.924Z,0
2017-01-20T04:39:49.072Z,0
2017-01-20T04:40:58.789Z,0
2017-01-20T04:42:09.378Z,0
2017-01-20T04:43:19.587Z,0
2017-01-20T04:44:28.865Z,0
2017-01-20T04:45:38.142Z,0
2017-01-20T04:46:47.855Z,0
2017-01-20T04:47:57.596Z,0
2017-01-20T04:49:07.366Z,0
2017-01-20T04:50:16.642Z,0
2017-01-20T04:51:26.796Z,0
2017-01-20T04:52:36.517Z,0
2017-01-20T04:53:46.671Z,0
2017-01-20T04:54:57.316Z,0
2017-01-20T04:56:07.497Z,0
2017-01-20T04:57:16.790Z,0
2017-01-20T04:58:26.515Z,0
2017-01-20T04:59:36.673Z,0
2017-01-20T05:00:46.442Z,0
2017-01-20T05:01:57.035Z,0
2017-01-20T05:03:07.193Z,0
2017-01-20T05:04:16.918Z,0
2017-01-20T05:05:27.067Z,0
2017-01-20T05:06:36.928Z,0
2017-01-20T05:07:47.086Z,0
2017-01-20T05:08:56.799Z,0
2017-01-20T05:10:06.516Z,0
2017-01-20T05:11:16.225Z,0
2017-01-20T05:12:25.554Z,0
2017-01-20T05:13:35.271Z,0
2017-01-20T05:14:44.994Z,0
2017-01-20T05:15:55.150Z,0
2017-01-20T05:17:05.308Z,0
2017-01-20T05:18:14.737Z,0
2017-01-20T05:19:24.446Z,0
2017-01-20T05:20:34.604Z,0
2017-01-20T05:21:44.321Z,0
2017-01-20T05:22:54.474Z,0
2017-01-20T05:24:03.807Z,0
2017-01-20T05:25:14.396Z,0
2017-01-20T05:26:24.557Z,0
2017-01-20T05:27:34.271Z,0
2017-01-20T05:28:44.424Z,0
2017-01-20T05:29:54.194Z,0
2017-01-20T05:31:04.783Z,0
2017-01-20T05:32:14.500Z,0
2017-01-20T05:33:24.653Z,0
2017-01-20T05:34:33.931Z,0
2017-01-20T05:35:44.580Z,0
2017-01-20T05:36:54.729Z,0
2017-01-20T05:38:04.882Z,0
2017-01-20T05:39:14.163Z,0
2017-01-20T05:40:23.877Z,0
2017-01-20T05:41:33.646Z,0
2017-01-20T05:42:43.363Z,0
2017-01-20T05:43:53.089Z,0
2017-01-20T05:45:02.806Z,0
2017-01-20T05:46:12.963Z,0
2017-01-20T05:47:23.608Z,0
2017-01-20T05:48:33.765Z,0
2017-01-20T05:49:43.484Z,0
2017-01-20T05:50:52.768Z,0
2017-01-20T05:52:02.929Z,0
2017-01-20T05:53:12.698Z,0
2017-01-20T05:54:22.876Z,0
2017-01-20T05:55:32.157Z,0
2017-01-20T05:56:41.878Z,0
2017-01-20T05:57:51.591Z,0
2017-01-20T05:59:00.949Z,0
2017-01-20T06:00:11.542Z,0
2017-01-20T06:01:21.251Z,0
2017-01-20T06:02:31.840Z,0
2017-01-20T06:03:41.554Z,0
2017-01-20T06:04:50.887Z,0
2017-01-20T06:06:00.172Z,0
2017-01-20T06:07:09.885Z,0
2017-01-20T06:08:20.478Z,0
2017-01-20T06:09:31.068Z,0
2017-01-20T06:10:41.704Z,0
2017-01-20T06:11:51.422Z,0
2017-01-20T06:13:02.019Z,0
2017-01-20T06:14:11.292Z,0
2017-01-20T06:15:21.014Z,0
2017-01-20T06:16:31.211Z,0
2017-01-20T06:17:41.368Z,0
2017-01-20T06:18:51.521Z,0
2017-01-20T06:20:01.234Z,0
2017-01-20T06:21:10.956Z,0
2017-01-20T06:22:20.748Z,0
2017-01-20T06:23:30.030Z,0
2017-01-20T06:24:40.186Z,0
2017-01-20T06:25:49.473Z,4
2017-01-20T06:26:58.757Z,4
2017-01-20T06:28:09.394Z,4
2017-01-20T06:29:19.112Z,4
2017-01-20T06:30:29.712Z,4
2017-01-20T06:31:39.430Z,0
2017-01-20T06:32:49.583Z,0
2017-01-20T06:33:59.348Z,0
2017-01-20T06:35:09.500Z,0
2017-01-20T06:36:20.522Z,0
2017-01-20T06:37:30.244Z,0
2017-01-20T06:38:40.841Z,0
2017-01-20T06:39:51.490Z,0
2017-01-20T06:41:01.643Z,0
2017-01-20T06:42:11.356Z,0
2017-01-20T06:43:21.509Z,0
2017-01-20T06:44:32.103Z,4
2017-01-20T06:45:42.320Z,4
2017-01-20T06:46:52.033Z,0
2017-01-20T06:48:01.310Z,4
2017-01-20T06:49:11.023Z,4
2017-01-20T06:50:20.740Z,4
2017-01-20T06:51:30.954Z,4
2017-01-20T06:52:40.667Z,4
2017-01-20T06:53:50.380Z,8
2017-01-20T06:54:59.685Z,8
2017-01-20T06:56:09.410Z,8
2017-01-20T06:57:19.616Z,12
2017-01-20T06:58:29.333Z,16
2017-01-20T06:59:39.493Z,16
2017-01-20T07:00:49.207Z,16
2017-01-20T07:01:59.364Z,20
2017-01-20T07:03:09.133Z,24
2017-01-20T07:04:18.851Z,28
2017-01-20T07:05:28.999Z,32
2017-01-20T07:06:39.157Z,36
2017-01-20T07:07:49.310Z,44
2017-01-20T07:08:59.672Z,48
2017-01-20T07:10:09.389Z,52
2017-01-20T07:11:19.538Z,56
2017-01-20T07:12:29.691Z,64
2017-01-20T07:13:39.408Z,72
2017-01-20T07:14:49.614Z,80
2017-01-20T07:16:00.207Z,88
2017-01-20T07:17:10.364Z,92
2017-01-20T07:18:20.080Z,100
2017-01-20T07:19:30.234Z,108
2017-01-20T07:20:40.440Z,120
2017-01-20T07:21:50.596Z,132
2017-01-20T07:23:00.749Z,140
2017-01-20T07:24:11.335Z,156
2017-01-20T07:25:21.048Z,168
2017-01-20T07:26:31.689Z,184
2017-01-20T07:27:40.979Z,196
2017-01-20T07:28:50.696Z,212
2017-01-20T07:29:59.973Z,228
2017-01-20T07:31:10.126Z,248
2017-01-20T07:32:20.335Z,264
2017-01-20T07:33:30.925Z,284
2017-01-20T07:34:41.083Z,300
2017-01-20T07:35:50.795Z,320
2017-01-20T07:37:00.076Z,332
2017-01-20T07:38:10.277Z,344
2017-01-20T07:39:19.995Z,360
2017-01-20T07:40:30.588Z,372
2017-01-20T07:41:40.733Z,392
2017-01-20T07:42:50.890Z,416
2017-01-20T07:44:00.216Z,444
2017-01-20T07:45:09.933Z,468
2017-01-20T07:46:19.646Z,496
2017-01-20T07:47:29.359Z,528
2017-01-20T07:48:39.516Z,552
2017-01-20T07:49:49.282Z,576
2017-01-20T07:50:59.008Z,600
2017-01-20T07:52:08.720Z,620
2017-01-20T07:53:19.305Z,648
2017-01-20T07:54:28.582Z,672
2017-01-20T07:55:38.343Z,704
2017-01-20T07:56:48.501Z,740
2017-01-20T07:57:58.653Z,776
2017-01-20T07:59:08.366Z,804
2017-01-20T08:00:19.396Z,836
2017-01-20T08:01:30.040Z,868
2017-01-20T08:02:39.317Z,900
2017-01-20T08:03:49.034Z,924
2017-01-20T08:04:59.204Z,952
2017-01-20T08:06:08.925Z,980
2017-01-20T08:07:19.126Z,1008
2017-01-20T08:08:29.283Z,1036
2017-01-20T08:09:39.431Z,1056
2017-01-20T08:10:49.144Z,1080
2017-01-20T08:11:58.425Z,1104
2017-01-20T08:13:08.199Z,1124
2017-01-20T08:14:17.925Z,1140
2017-01-20T08:15:27.704Z,1152
2017-01-20T08:16:37.413Z,1156
2017-01-20T08:17:47.134Z,1164
2017-01-20T08:18:57.343Z,1176
2017-01-20T08:20:07.932Z,1188
2017-01-20T08:21:18.529Z,1188
2017-01-20T08:22:28.242Z,1184
2017-01-20T08:23:37.963Z,1172
2017-01-20T08:24:48.320Z,1168
2017-01-20T08:25:57.601Z,1160
2017-01-20T08:27:07.758Z,1164
2017-01-20T08:28:17.471Z,1176
2017-01-20T08:29:27.196Z,1200
2017-01-20T08:30:37.117Z,1212
2017-01-20T08:31:47.297Z,1220
2017-01-20T08:32:57.451Z,1208
2017-01-20T08:34:07.164Z,1200
2017-01-20T08:35:16.873Z,1220
2017-01-20T08:36:26.637Z,1236
2017-01-20T08:37:36.355Z,1260
2017-01-20T08:38:46.511Z,1296
2017-01-20T08:39:56.224Z,1332
2017-01-20T08:41:06.385Z,1364
2017-01-20T08:42:15.719Z,1396
2017-01-20T08:43:24.995Z,1428
2017-01-20T08:44:34.713Z,1444
2017-01-20T08:45:43.994Z,1456
2017-01-20T08:46:53.718Z,1472
2017-01-20T08:48:04.355Z,1504
2017-01-20T08:49:14.089Z,1532
2017-01-20T08:50:24.242Z,1560
2017-01-20T08:51:34.399Z,1564
2017-01-20T08:52:44.124Z,1532
2017-01-20T08:53:54.773Z,1488
2017-01-20T08:55:04.062Z,1460
2017-01-20T08:56:13.784Z,1412
2017-01-20T08:57:23.941Z,1344
2017-01-20T08:58:34.530Z,1284
2017-01-20T08:59:44.319Z,1224
2017-01-20T09:00:54.041Z,1180
2017-01-20T09:02:03.350Z,1144
2017-01-20T09:03:12.623Z,1132
2017-01-20T09:04:21.904Z,1144
2017-01-20T09:05:32.553Z,1152
2017-01-20T09:06:43.143Z,1164
2017-01-20T09:07:52.428Z,1196
2017-01-20T09:09:02.145Z,1224
2017-01-20T09:10:11.862Z,1248
2017-01-20T09:11:21.628Z,1280
2017-01-20T09:12:31.332Z,1308
2017-01-20T09:13:41.481Z,1320
2017-01-20T09:14:52.503Z,1296
2017-01-20T09:16:03.100Z,1268
2017-01-20T09:17:12.437Z,1248
2017-01-20T09:18:22.154Z,1256
2017-01-20T09:19:32.303Z,1252
2017-01-20T09:20:42.021Z,1284
2017-01-20T09:21:52.186Z,1316
2017-01-20T09:23:02.391Z,1340
2017-01-20T09:24:12.544Z,1388
2017-01-20T09:25:22.266Z,1392
2017-01-20T09:26:32.886Z,1376
2017-01-20T09:27:43.035Z,1372
2017-01-20T09:28:53.245Z,1380
2017-01-20T09:30:02.962Z,1368
2017-01-20T09:31:12.680Z,1372
2017-01-20T09:32:22.837Z,1380
2017-01-20T09:33:32.558Z,1388
2017-01-20T09:34:42.335Z,1400
2017-01-20T09:35:52.493Z,1408
2017-01-20T09:37:01.777Z,1404
2017-01-20T09:38:11.494Z,1408
2017-01-20T09:39:21.232Z,1420
2017-01-20T09:40:31.002Z,1448
2017-01-20T09:41:41.590Z,1436
2017-01-20T09:42:50.863Z,1468
2017-01-20T09:44:00.149Z,1504
2017-01-20T09:45:10.301Z,1548
2017-01-20T09:46:20.503Z,1540
2017-01-20T09:47:30.228Z,1544
2017-01-20T09:48:40.382Z,1572
2017-01-20T09:49:50.103Z,1548
2017-01-20T09:50:59.828Z,1508
2017-01-20T09:52:09.601Z,1492
2017-01-20T09:53:19.318Z,1476
2017-01-20T09:54:28.600Z,1492
2017-01-20T09:55:37.877Z,1484
2017-01-20T09:56:47.599Z,1540
2017-01-20T09:57:57.363Z,1588
2017-01-20T09:59:07.528Z,1640
2017-01-20T10:00:17.242Z,1732
2017-01-20T10:01:27.403Z,1744
2017-01-20T10:02:37.125Z,1784
2017-01-20T10:03:46.454Z,1900
2017-01-20T10:04:56.167Z,1976
2017-01-20T10:06:05.889Z,2004
2017-01-20T10:07:17.305Z,2024
2017-01-20T10:08:28.427Z,2048
2017-01-20T10:09:38.632Z,2028
2017-01-20T10:10:48.789Z,2072
2017-01-20T10:11:58.950Z,2100
2017-01-20T10:13:08.671Z,2080
2017-01-20T10:14:18.828Z,2056
2017-01-20T10:15:29.034Z,2044
2017-01-20T10:16:38.748Z,1988
2017-01-20T10:17:49.344Z,2028
2017-01-20T10:18:59.502Z,2076
2017-01-20T10:20:08.783Z,1964
2017-01-20T10:21:18.548Z,1992
2017-01-20T10:22:29.145Z,2124
2017-01-20T10:23:39.302Z,2196
2017-01-20T10:24:49.023Z,2256
2017-01-20T10:25:59.185Z,2256
2017-01-20T10:27:08.950Z,2308
2017-01-20T10:28:18.671Z,2268
2017-01-20T10:29:27.964Z,2376
2017-01-20T10:30:37.681Z,2432
2017-01-20T10:31:47.398Z,2252
2017-01-20T10:32:57.167Z,2472
2017-01-20T10:34:06.892Z,2572
2017-01-20T10:35:17.046Z,2612
2017-01-20T10:36:28.087Z,2616
2017-01-20T10:37:38.680Z,2496
2017-01-20T10:38:48.009Z,2576
2017-01-20T10:39:58.603Z,2704
2017-01-20T10:41:08.768Z,2628
2017-01-20T10:42:18.049Z,2468
2017-01-20T10:43:28.206Z,2456
2017-01-20T10:44:38.411Z,2588
2017-01-20T10:45:48.128Z,2640
2017-01-20T10:46:58.738Z,2764
2017-01-20T10:48:08.018Z,2864
2017-01-20T10:49:17.736Z,2960
2017-01-20T10:50:27.065Z,2988
2017-01-20T10:51:36.810Z,2988
2017-01-20T10:52:46.536Z,3020
2017-01-20T10:53:56.257Z,3080
2017-01-20T10:55:06.414Z,3096
2017-01-20T10:56:16.631Z,3124
2017-01-20T10:57:26.801Z,3152
2017-01-20T10:58:36.958Z,3160
2017-01-20T10:59:47.143Z,3168
2017-01-20T11:00:56.860Z,3180
2017-01-20T11:02:06.634Z,3204
2017-01-20T11:03:15.923Z,3252
2017-01-20T11:04:25.656Z,3280
2017-01-20T11:05:35.373Z,3336
2017-01-20T11:06:45.538Z,3356
2017-01-20T11:07:55.764Z,3388
2017-01-20T11:09:05.925Z,3444
2017-01-20T11:10:15.646Z,3492
2017-01-20T11:11:24.927Z,3536
2017-01-20T11:12:34.649Z,3564
2017-01-20T11:13:45.298Z,3612
2017-01-20T11:14:55.011Z,3640
2017-01-20T11:16:05.608Z,3636
2017-01-20T11:17:16.206Z,3668
2017-01-20T11:18:26.803Z,3684
2017-01-20T11:19:39.960Z,3684
2017-01-20T11:20:53.777Z,3652
2017-01-20T11:22:06.823Z,3496
2017-01-20T11:23:18.608Z,3400
2017-01-20T11:24:34.029Z,3520
2017-01-20T11:25:44.746Z,3624
2017-01-20T11:26:54.903Z,3704
2017-01-20T11:28:04.620Z,3748
2017-01-20T11:29:15.433Z,3796
2017-01-20T11:30:25.643Z,3768
2017-01-20T11:31:34.929Z,3816
2017-01-20T11:32:46.646Z,3852
2017-01-20T11:33:56.371Z,3800
2017-01-20T11:35:06.452Z,3764
2017-01-20T11:36:16.237Z,3792
2017-01-20T11:37:26.462Z,3748
2017-01-20T11:38:36.587Z,3700
2017-01-20T11:39:46.326Z,3784
2017-01-20T11:40:56.934Z,3804
2017-01-20T11:42:06.704Z,3856
2017-01-20T11:43:16.428Z,3988
2017-01-20T11:44:26.150Z,4040
2017-01-20T11:45:35.875Z,4060
2017-01-20T11:46:45.768Z,4080
2017-01-20T11:47:55.825Z,4076
2017-01-20T11:49:05.643Z,4092
2017-01-20T11:50:16.464Z,4100
2017-01-20T11:51:25.848Z,4056
2017-01-20T11:52:36.030Z,3992
2017-01-20T11:53:45.807Z,4068
2017-01-20T11:54:55.965Z,4088
2017-01-20T11:56:06.122Z,4056
2017-01-20T11:57:15.651Z,4080
2017-01-20T11:58:28.284Z,4680
2017-01-20T11:59:38.806Z,4744
2017-01-20T12:00:49.295Z,4736
2017-01-20T12:02:00.423Z,4000
2017-01-20T12:03:09.909Z,4364
2017-01-20T12:04:19.194Z,4756
2017-01-20T12:05:29.403Z,4480
2017-01-20T12:06:38.772Z,4440
2017-01-20T12:07:49.934Z,4592
2017-01-20T12:08:59.683Z,4620
2017-01-20T12:10:10.099Z,4720
2017-01-20T12:11:20.625Z,4716
2017-01-20T12:12:30.510Z,4696
2017-01-20T12:13:40.011Z,4676
2017-01-20T12:14:49.304Z,4664
2017-01-20T12:15:58.601Z,4648
2017-01-20T12:17:07.935Z,4620
2017-01-20T12:18:17.656Z,4596
2017-01-20T12:19:27.685Z,4580
2017-01-20T12:20:37.033Z,4604
2017-01-20T12:21:47.007Z,4600
2017-01-20T12:22:56.772Z,4496
2017-01-20T12:24:06.621Z,4360
2017-01-20T12:25:17.222Z,4584
2017-01-20T12:26:27.559Z,4580
2017-01-20T12:27:37.288Z,4592
2017-01-20T12:28:47.778Z,4584
2017-01-20T12:29:58.783Z,4544
2017-01-20T12:31:08.512Z,4556
2017-01-20T12:32:18.237Z,4556
2017-01-20T12:33:27.962Z,4564
2017-01-20T12:34:38.175Z,4556
2017-01-20T12:35:47.456Z,4540
2017-01-20T12:36:57.742Z,4508
2017-01-20T12:38:08.278Z,4492
2017-01-20T12:39:18.444Z,4508
2017-01-20T12:40:28.661Z,4524
2017-01-20T12:41:38.387Z,4516
2017-01-20T12:42:47.675Z,4504
2017-01-20T12:43:57.401Z,4524
2017-01-20T12:45:07.558Z,4496
2017-01-20T12:46:16.903Z,4476
2017-01-20T12:47:26.629Z,4456
2017-01-20T12:48:36.878Z,4432
2017-01-20T12:49:46.599Z,4408
2017-01-20T12:50:57.209Z,4364
2017-01-20T12:52:06.542Z,4328
2017-01-20T12:53:16.279Z,4304
2017-01-20T12:54:26.008Z,4300
2017-01-20T12:55:36.173Z,4280
2017-01-20T12:56:46.578Z,4244
2017-01-20T12:57:56.564Z,4212
2017-01-20T12:59:06.721Z,4168
2017-01-20T13:00:16.894Z,4148
2017-01-20T13:01:27.496Z,3980
2017-01-20T13:02:37.661Z,3896
2017-01-20T13:03:48.167Z,3972
2017-01-20T13:04:58.387Z,3816
2017-01-20T13:06:08.429Z,3772
2017-01-20T13:07:20.834Z,4004
2017-01-20T13:08:32.115Z,3960
2017-01-20T13:09:42.316Z,3900
2017-01-20T13:10:52.482Z,3848
2017-01-20T13:12:02.507Z,3812
2017-01-20T13:13:13.488Z,3768
2017-01-20T13:14:23.594Z,3748
2017-01-20T13:15:33.366Z,3712
2017-01-20T13:16:43.304Z,3688
2017-01-20T13:17:53.461Z,3672
2017-01-20T13:19:04.502Z,3404
2017-01-20T13:20:14.663Z,3556
2017-01-20T13:21:24.633Z,3444
2017-01-20T13:22:34.798Z,3336
2017-01-20T13:23:44.966Z,3140
2017-01-20T13:24:54.252Z,2952
2017-01-20T13:26:04.853Z,3304
2017-01-20T13:27:14.190Z,3056
2017-01-20T13:28:24.407Z,3328
2017-01-20T13:29:35.105Z,3296
2017-01-20T13:30:45.474Z,3224
2017-01-20T13:31:54.895Z,3156
2017-01-20T13:33:05.208Z,3140
2017-01-20T13:34:14.487Z,2776
2017-01-20T13:35:23.774Z,2964
2017-01-20T13:36:33.495Z,2716
2017-01-20T13:37:42.997Z,2780
2017-01-20T13:38:52.774Z,2964
2017-01-20T13:40:02.927Z,2948
2017-01-20T13:41:12.861Z,2936
2017-01-20T13:42:23.461Z,2896
2017-01-20T13:43:34.055Z,2880
2017-01-20T13:44:44.444Z,2840
2017-01-20T13:45:54.721Z,2812
2017-01-20T13:47:04.994Z,2776
2017-01-20T13:48:15.156Z,2716
2017-01-20T13:49:24.865Z,2704
2017-01-20T13:50:35.502Z,2616
2017-01-20T13:51:45.255Z,2588
2017-01-20T13:52:56.080Z,2600
2017-01-20T13:54:05.826Z,2452
2017-01-20T13:55:15.547Z,2536
2017-01-20T13:56:25.872Z,2516
2017-01-20T13:57:35.693Z,2452
2017-01-20T13:58:44.983Z,2420
2017-01-20T13:59:54.443Z,2372
2017-01-20T14:01:04.161Z,2316
2017-01-20T14:02:14.379Z,2272
2017-01-20T14:03:23.879Z,2248
2017-01-20T14:04:34.044Z,2144
2017-01-20T14:05:43.769Z,1928
2017-01-20T14:06:53.251Z,1628
2017-01-20T14:08:03.660Z,1308
2017-01-20T14:09:14.265Z,1164
2017-01-20T14:10:24.206Z,1040
2017-01-20T14:11:33.495Z,948
2017-01-20T14:12:43.216Z,884
2017-01-20T14:13:53.474Z,844
2017-01-20T14:15:03.843Z,812
2017-01-20T14:16:13.668Z,792
2017-01-20T14:17:24.269Z,780
2017-01-20T14:18:35.043Z,760
2017-01-20T14:19:44.596Z,744
2017-01-20T14:20:54.781Z,740
2017-01-20T14:22:04.510Z,736
2017-01-20T14:23:13.799Z,744
2017-01-20T14:24:24.140Z,736
2017-01-20T14:25:34.354Z,724
2017-01-20T14:26:45.059Z,712
2017-01-20T14:27:55.524Z,708
2017-01-20T14:29:06.558Z,700
2017-01-20T14:30:17.158Z,692
2017-01-20T14:31:26.932Z,684
2017-01-20T14:32:36.217Z,668
2017-01-20T14:33:47.614Z,660
2017-01-20T14:34:57.812Z,652
2017-01-20T14:36:07.972Z,648
2017-01-20T14:37:18.425Z,644
2017-01-20T14:38:27.920Z,636
2017-01-20T14:39:37.200Z,632
2017-01-20T14:40:47.467Z,624
2017-01-20T14:41:56.971Z,624
2017-01-20T14:43:06.749Z,628
2017-01-20T14:44:16.033Z,632
2017-01-20T14:45:26.902Z,628
2017-01-20T14:46:36.724Z,620
2017-01-20T14:47:47.325Z,612
2017-01-20T14:48:58.179Z,596
2017-01-20T14:50:07.491Z,588
2017-01-20T14:51:17.653Z,580
2017-01-20T14:52:28.022Z,572
2017-01-20T14:53:38.183Z,564
2017-01-20T14:54:48.429Z,552
2017-01-20T14:56:06.006Z,536
2017-01-20T14:57:21.495Z,516
2017-01-20T14:58:38.041Z,504
2017-01-20T14:59:50.142Z,496
2017-01-20T15:01:00.303Z,480
2017-01-20T15:02:10.468Z,468
2017-01-20T15:03:21.553Z,456
2017-01-20T15:04:31.219Z,448
2017-01-20T15:05:40.560Z,436
2017-01-20T15:06:49.869Z,420
2017-01-20T15:08:00.030Z,412
2017-01-20T15:09:10.195Z,408
2017-01-20T15:10:20.356Z,396
2017-01-20T15:11:30.570Z,388
2017-01-20T15:12:40.731Z,376
2017-01-20T15:13:50.892Z,356
2017-01-20T15:15:00.617Z,344
2017-01-20T15:16:10.778Z,328
2017-01-20T15:17:20.555Z,316
2017-01-20T15:18:30.274Z,304
2017-01-20T15:19:40.001Z,296
2017-01-20T15:20:49.287Z,284
2017-01-20T15:21:59.892Z,272
2017-01-20T15:23:10.541Z,264
2017-01-20T15:24:20.274Z,252
2017-01-20T15:25:30.000Z,236
2017-01-20T15:26:39.281Z,228
2017-01-20T15:27:49.010Z,216
2017-01-20T15:28:59.655Z,204
2017-01-20T15:30:09.816Z,196
2017-01-20T15:31:19.533Z,184
2017-01-20T15:32:29.695Z,176
2017-01-20T15:33:38.987Z,164
2017-01-20T15:34:48.316Z,156
2017-01-20T15:35:57.601Z,148
2017-01-20T15:37:07.766Z,140
2017-01-20T15:38:17.924Z,128
2017-01-20T15:39:28.076Z,120
2017-01-20T15:40:37.845Z,108
2017-01-20T15:41:47.574Z,104
2017-01-20T15:42:56.855Z,96
2017-01-20T15:44:06.152Z,88
2017-01-20T15:45:15.869Z,80
2017-01-20T15:46:25.642Z,76
2017-01-20T15:47:35.366Z,68
2017-01-20T15:48:45.095Z,64
2017-01-20T15:49:54.380Z,60
2017-01-20T15:51:04.102Z,52
2017-01-20T15:52:13.887Z,48
2017-01-20T15:53:23.608Z,40
2017-01-20T15:54:34.209Z,40
2017-01-20T15:55:43.498Z,36
2017-01-20T15:56:53.223Z,28
2017-01-20T15:58:03.424Z,28
2017-01-20T15:59:13.145Z,24
2017-01-20T16:00:22.867Z,20
2017-01-20T16:01:32.584Z,20
2017-01-20T16:02:43.181Z,16
2017-01-20T16:03:53.834Z,12
2017-01-20T16:05:03.995Z,12
2017-01-20T16:06:13.280Z,8
2017-01-20T16:07:22.565Z,8
2017-01-20T16:08:32.726Z,8
2017-01-20T16:09:42.932Z,4
2017-01-20T16:10:52.213Z,4
2017-01-20T16:12:02.822Z,4
2017-01-20T16:13:12.575Z,4
2017-01-20T16:14:22.296Z,4
2017-01-20T16:15:32.065Z,0
2017-01-20T16:16:41.787Z,4
2017-01-20T16:17:51.512Z,4
2017-01-20T16:19:00.801Z,0
2017-01-20T16:20:10.958Z,0
2017-01-20T16:21:20.734Z,0
2017-01-20T16:22:30.448Z,0